sensor_id;sensor_type;location;lat;lon;timestamp;temperature;humidity
27506;DHT22;14939;43.596;1.320;2023-08-12T00:00:48;22.20;99.90
27506;DHT22;14939;43.596;1.320;2023-08-12T00:03:15;22.20;99.90
27506;DHT22;14939;43.596;1.320;2023-08-12T00:05:40;22.10;99.90
27506;DHT22;14939;43.596;1.320;2023-08-12T00:08:08;22.10;99.90
27506;DHT22;14939;43.596;1.320;2023-08-12T00:10:33;22.20;99.90
27506;DHT22;14939;43.596;1.320;2023-08-12T00:12:59;22.20;99.90
27506;DHT22;14939;43.596;1.320;2023-08-12T00:15:24;22.20;99.90
27506;DHT22;14939;43.596;1.320;2023-08-12T00:17:50;22.10;99.90
27506;DHT22;14939;43.596;1.320;2023-08-12T00:20:16;22.10;99.90
27506;DHT22;14939;43.596;1.320;2023-08-12T00:22:41;22.10;99.90
27506;DHT22;14939;43.596;1.320;2023-08-12T00:25:07;22.10;99.90
27506;DHT22;14939;43.596;1.320;2023-08-12T00:27:33;22.00;99.90
27506;DHT22;14939;43.596;1.320;2023-08-12T00:29:58;21.90;99.90
27506;DHT22;14939;43.596;1.320;2023-08-12T00:32:24;21.90;99.90
27506;DHT22;14939;43.596;1.320;2023-08-12T00:34:49;21.90;99.90
27506;DHT22;14939;43.596;1.320;2023-08-12T00:37:15;21.80;99.90
27506;DHT22;14939;43.596;1.320;2023-08-12T00:39:41;21.80;99.90
27506;DHT22;14939;43.596;1.320;2023-08-12T00:42:06;21.80;99.90
27506;DHT22;14939;43.596;1.320;2023-08-12T00:44:32;21.80;99.90
27506;DHT22;14939;43.596;1.320;2023-08-12T00:46:57;21.90;99.90
27506;DHT22;14939;43.596;1.320;2023-08-12T00:49:23;21.80;99.90
27506;DHT22;14939;43.596;1.320;2023-08-12T00:51:49;21.70;99.90
27506;DHT22;14939;43.596;1.320;2023-08-12T00:54:15;21.70;99.90
27506;DHT22;14939;43.596;1.320;2023-08-12T00:56:41;21.70;99.90
27506;DHT22;14939;43.596;1.320;2023-08-12T00:59:07;21.70;99.90
27506;DHT22;14939;43.596;1.320;2023-08-12T01:01:34;21.70;99.90
27506;DHT22;14939;43.596;1.320;2023-08-12T01:04:00;21.70;99.90
27506;DHT22;14939;43.596;1.320;2023-08-12T01:06:26;21.60;99.90
27506;DHT22;14939;43.596;1.320;2023-08-12T01:08:51;21.50;99.90
27506;DHT22;14939;43.596;1.320;2023-08-12T01:11:22;21.40;99.90
27506;DHT22;14939;43.596;1.320;2023-08-12T01:16:19;21.30;99.90
27506;DHT22;14939;43.596;1.320;2023-08-12T01:18:46;21.30;99.90
27506;DHT22;14939;43.596;1.320;2023-08-12T01:21:15;21.20;99.90
27506;DHT22;14939;43.596;1.320;2023-08-12T01:23:42;21.20;99.90
27506;DHT22;14939;43.596;1.320;2023-08-12T01:26:07;21.10;99.90
27506;DHT22;14939;43.596;1.320;2023-08-12T01:28:33;21.10;99.90
27506;DHT22;14939;43.596;1.320;2023-08-12T01:34:06;21.00;99.90
27506;DHT22;14939;43.596;1.320;2023-08-12T01:36:33;20.90;99.90
27506;DHT22;14939;43.596;1.320;2023-08-12T01:39:00;20.90;99.90
27506;DHT22;14939;43.596;1.320;2023-08-12T01:41:26;20.90;99.90
27506;DHT22;14939;43.596;1.320;2023-08-12T01:43:52;21.00;99.90
27506;DHT22;14939;43.596;1.320;2023-08-12T01:46:17;21.00;99.90
27506;DHT22;14939;43.596;1.320;2023-08-12T01:48:43;20.90;99.90
27506;DHT22;14939;43.596;1.320;2023-08-12T01:51:08;20.90;99.90
27506;DHT22;14939;43.596;1.320;2023-08-12T01:53:34;20.80;99.90
27506;DHT22;14939;43.596;1.320;2023-08-12T01:56:00;20.70;99.90
27506;DHT22;14939;43.596;1.320;2023-08-12T01:58:25;20.80;99.90
27506;DHT22;14939;43.596;1.320;2023-08-12T02:00:52;20.80;99.90
27506;DHT22;14939;43.596;1.320;2023-08-12T02:03:17;20.80;99.90
27506;DHT22;14939;43.596;1.320;2023-08-12T02:05:43;20.60;99.90
27506;DHT22;14939;43.596;1.320;2023-08-12T02:08:08;20.60;99.90
27506;DHT22;14939;43.596;1.320;2023-08-12T02:10:34;20.50;99.90
27506;DHT22;14939;43.596;1.320;2023-08-12T02:13:00;20.30;99.90
27506;DHT22;14939;43.596;1.320;2023-08-12T02:15:25;20.40;99.90
27506;DHT22;14939;43.596;1.320;2023-08-12T02:17:51;20.30;99.90
27506;DHT22;14939;43.596;1.320;2023-08-12T02:20:16;20.30;99.90
27506;DHT22;14939;43.596;1.320;2023-08-12T02:22:43;20.40;99.90
27506;DHT22;14939;43.596;1.320;2023-08-12T02:25:09;20.40;99.90
27506;DHT22;14939;43.596;1.320;2023-08-12T02:27:35;20.40;99.90
27506;DHT22;14939;43.596;1.320;2023-08-12T02:30:00;20.40;99.90
27506;DHT22;14939;43.596;1.320;2023-08-12T02:32:26;20.40;99.90
27506;DHT22;14939;43.596;1.320;2023-08-12T02:34:51;20.40;99.90
27506;DHT22;14939;43.596;1.320;2023-08-12T02:37:17;20.40;99.90
27506;DHT22;14939;43.596;1.320;2023-08-12T02:39:42;20.40;99.90
27506;DHT22;14939;43.596;1.320;2023-08-12T02:42:08;20.40;99.90
27506;DHT22;14939;43.596;1.320;2023-08-12T02:44:33;20.40;99.90
27506;DHT22;14939;43.596;1.320;2023-08-12T02:47:17;20.40;99.90
27506;DHT22;14939;43.596;1.320;2023-08-12T02:49:43;20.30;99.90
27506;DHT22;14939;43.596;1.320;2023-08-12T02:52:09;20.20;99.90
27506;DHT22;14939;43.596;1.320;2023-08-12T02:54:34;20.20;99.90
27506;DHT22;14939;43.596;1.320;2023-08-12T02:57:00;20.10;99.90
27506;DHT22;14939;43.596;1.320;2023-08-12T02:59:26;20.10;99.90
27506;DHT22;14939;43.596;1.320;2023-08-12T03:01:52;20.10;99.90
27506;DHT22;14939;43.596;1.320;2023-08-12T03:04:18;20.10;99.90
27506;DHT22;14939;43.596;1.320;2023-08-12T03:06:43;20.00;99.90
27506;DHT22;14939;43.596;1.320;2023-08-12T03:09:09;19.90;99.90
27506;DHT22;14939;43.596;1.320;2023-08-12T03:11:34;19.80;99.90
27506;DHT22;14939;43.596;1.320;2023-08-12T03:14:00;19.70;99.90
27506;DHT22;14939;43.596;1.320;2023-08-12T03:16:25;19.70;99.90
27506;DHT22;14939;43.596;1.320;2023-08-12T03:18:51;19.60;99.90
27506;DHT22;14939;43.596;1.320;2023-08-12T03:21:17;19.60;99.90
27506;DHT22;14939;43.596;1.320;2023-08-12T03:23:42;19.60;99.90
27506;DHT22;14939;43.596;1.320;2023-08-12T03:26:08;19.50;99.90
27506;DHT22;14939;43.596;1.320;2023-08-12T03:28:33;19.50;99.90
27506;DHT22;14939;43.596;1.320;2023-08-12T03:30:59;19.50;99.90
27506;DHT22;14939;43.596;1.320;2023-08-12T03:33:24;19.40;99.90
27506;DHT22;14939;43.596;1.320;2023-08-12T03:35:50;19.30;99.90
27506;DHT22;14939;43.596;1.320;2023-08-12T03:38:16;19.30;99.90
27506;DHT22;14939;43.596;1.320;2023-08-12T03:40:42;19.30;99.90
27506;DHT22;14939;43.596;1.320;2023-08-12T03:43:07;19.20;99.90
27506;DHT22;14939;43.596;1.320;2023-08-12T03:45:39;19.10;99.90
27506;DHT22;14939;43.596;1.320;2023-08-12T03:48:04;19.20;99.90
27506;DHT22;14939;43.596;1.320;2023-08-12T03:50:33;19.30;99.90
27506;DHT22;14939;43.596;1.320;2023-08-12T03:52:58;19.20;99.90
27506;DHT22;14939;43.596;1.320;2023-08-12T03:55:24;19.20;99.90
27506;DHT22;14939;43.596;1.320;2023-08-12T03:57:49;19.10;99.90
27506;DHT22;14939;43.596;1.320;2023-08-12T04:00:15;19.00;99.90
27506;DHT22;14939;43.596;1.320;2023-08-12T04:02:42;19.00;99.90
27506;DHT22;14939;43.596;1.320;2023-08-12T04:05:08;19.00;99.90
27506;DHT22;14939;43.596;1.320;2023-08-12T04:07:35;18.90;99.90
27506;DHT22;14939;43.596;1.320;2023-08-12T04:10:01;18.90;99.90
27506;DHT22;14939;43.596;1.320;2023-08-12T04:12:27;18.80;99.90
27506;DHT22;14939;43.596;1.320;2023-08-12T04:14:52;18.90;99.90
27506;DHT22;14939;43.596;1.320;2023-08-12T04:17:18;19.00;99.90
27506;DHT22;14939;43.596;1.320;2023-08-12T04:19:43;18.90;99.90
27506;DHT22;14939;43.596;1.320;2023-08-12T04:22:09;18.80;99.90
27506;DHT22;14939;43.596;1.320;2023-08-12T04:24:35;18.80;99.90
27506;DHT22;14939;43.596;1.320;2023-08-12T04:27:00;18.80;99.90
27506;DHT22;14939;43.596;1.320;2023-08-12T04:29:26;18.70;99.90
27506;DHT22;14939;43.596;1.320;2023-08-12T04:31:51;18.70;99.90
27506;DHT22;14939;43.596;1.320;2023-08-12T04:34:18;18.70;99.90
27506;DHT22;14939;43.596;1.320;2023-08-12T04:36:43;18.70;99.90
27506;DHT22;14939;43.596;1.320;2023-08-12T04:39:09;18.70;99.90
27506;DHT22;14939;43.596;1.320;2023-08-12T04:41:35;18.70;99.90
27506;DHT22;14939;43.596;1.320;2023-08-12T04:44:04;18.70;99.90
27506;DHT22;14939;43.596;1.320;2023-08-12T04:46:29;18.70;99.90
27506;DHT22;14939;43.596;1.320;2023-08-12T04:48:55;18.70;99.90
27506;DHT22;14939;43.596;1.320;2023-08-12T04:51:21;18.60;99.90
27506;DHT22;14939;43.596;1.320;2023-08-12T04:53:46;18.70;99.90
27506;DHT22;14939;43.596;1.320;2023-08-12T04:56:12;18.60;99.90
27506;DHT22;14939;43.596;1.320;2023-08-12T04:58:37;18.60;99.90
27506;DHT22;14939;43.596;1.320;2023-08-12T05:01:03;18.60;99.90
27506;DHT22;14939;43.596;1.320;2023-08-12T05:03:28;18.60;99.90
27506;DHT22;14939;43.596;1.320;2023-08-12T05:05:54;18.70;99.90
27506;DHT22;14939;43.596;1.320;2023-08-12T05:08:20;18.70;99.90
27506;DHT22;14939;43.596;1.320;2023-08-12T05:10:48;18.70;99.90
27506;DHT22;14939;43.596;1.320;2023-08-12T05:13:14;18.80;99.90
27506;DHT22;14939;43.596;1.320;2023-08-12T05:15:40;18.90;99.90
27506;DHT22;14939;43.596;1.320;2023-08-12T05:18:05;19.00;99.90
27506;DHT22;14939;43.596;1.320;2023-08-12T05:20:31;19.10;99.90
27506;DHT22;14939;43.596;1.320;2023-08-12T05:22:56;19.10;99.90
27506;DHT22;14939;43.596;1.320;2023-08-12T05:25:22;19.10;99.90
27506;DHT22;14939;43.596;1.320;2023-08-12T05:27:49;19.20;99.90
27506;DHT22;14939;43.596;1.320;2023-08-12T05:30:14;19.40;99.90
27506;DHT22;14939;43.596;1.320;2023-08-12T05:32:40;19.40;99.90
27506;DHT22;14939;43.596;1.320;2023-08-12T05:35:05;19.50;99.90
27506;DHT22;14939;43.596;1.320;2023-08-12T05:37:31;19.70;99.90
27506;DHT22;14939;43.596;1.320;2023-08-12T05:39:56;19.80;99.90
27506;DHT22;14939;43.596;1.320;2023-08-12T05:42:22;19.90;99.90
27506;DHT22;14939;43.596;1.320;2023-08-12T05:44:47;20.00;99.90
27506;DHT22;14939;43.596;1.320;2023-08-12T05:47:13;20.10;99.90
27506;DHT22;14939;43.596;1.320;2023-08-12T05:49:39;20.20;99.90
27506;DHT22;14939;43.596;1.320;2023-08-12T05:52:04;20.30;99.90
27506;DHT22;14939;43.596;1.320;2023-08-12T05:54:30;20.40;99.90
27506;DHT22;14939;43.596;1.320;2023-08-12T05:56:56;20.40;99.90
27506;DHT22;14939;43.596;1.320;2023-08-12T05:59:21;20.50;99.90
27506;DHT22;14939;43.596;1.320;2023-08-12T06:01:47;20.60;99.90
27506;DHT22;14939;43.596;1.320;2023-08-12T06:04:12;20.70;99.90
27506;DHT22;14939;43.596;1.320;2023-08-12T06:06:38;20.70;99.90
27506;DHT22;14939;43.596;1.320;2023-08-12T06:09:03;20.70;99.90
27506;DHT22;14939;43.596;1.320;2023-08-12T06:11:29;20.80;99.90
27506;DHT22;14939;43.596;1.320;2023-08-12T06:13:54;20.90;99.90
27506;DHT22;14939;43.596;1.320;2023-08-12T06:16:20;20.90;99.90
27506;DHT22;14939;43.596;1.320;2023-08-12T06:18:45;21.00;99.90
27506;DHT22;14939;43.596;1.320;2023-08-12T06:21:11;21.00;99.90
27506;DHT22;14939;43.596;1.320;2023-08-12T06:23:36;21.00;99.90
27506;DHT22;14939;43.596;1.320;2023-08-12T06:26:02;21.00;99.90
27506;DHT22;14939;43.596;1.320;2023-08-12T06:28:28;21.10;99.90
27506;DHT22;14939;43.596;1.320;2023-08-12T06:30:53;21.20;99.90
27506;DHT22;14939;43.596;1.320;2023-08-12T06:33:19;21.20;99.90
27506;DHT22;14939;43.596;1.320;2023-08-12T06:35:44;21.20;99.90
27506;DHT22;14939;43.596;1.320;2023-08-12T06:38:10;21.20;99.90
27506;DHT22;14939;43.596;1.320;2023-08-12T06:40:37;21.30;99.90
27506;DHT22;14939;43.596;1.320;2023-08-12T06:43:02;21.40;99.90
27506;DHT22;14939;43.596;1.320;2023-08-12T06:45:28;21.50;99.90
27506;DHT22;14939;43.596;1.320;2023-08-12T06:47:53;21.50;99.90
27506;DHT22;14939;43.596;1.320;2023-08-12T06:50:19;21.70;99.90
27506;DHT22;14939;43.596;1.320;2023-08-12T06:52:44;21.80;99.90
27506;DHT22;14939;43.596;1.320;2023-08-12T06:55:10;21.70;99.90
27506;DHT22;14939;43.596;1.320;2023-08-12T06:57:36;21.80;99.90
27506;DHT22;14939;43.596;1.320;2023-08-12T07:00:02;21.90;99.90
27506;DHT22;14939;43.596;1.320;2023-08-12T07:02:27;22.00;99.90
27506;DHT22;14939;43.596;1.320;2023-08-12T07:04:53;22.10;99.90
27506;DHT22;14939;43.596;1.320;2023-08-12T07:07:18;22.30;99.90
27506;DHT22;14939;43.596;1.320;2023-08-12T07:09:44;22.30;99.90
27506;DHT22;14939;43.596;1.320;2023-08-12T07:12:10;22.40;99.90
27506;DHT22;14939;43.596;1.320;2023-08-12T07:14:35;22.50;99.90
27506;DHT22;14939;43.596;1.320;2023-08-12T07:17:01;22.50;99.90
27506;DHT22;14939;43.596;1.320;2023-08-12T07:19:26;22.60;99.90
27506;DHT22;14939;43.596;1.320;2023-08-12T07:21:52;22.60;99.90
27506;DHT22;14939;43.596;1.320;2023-08-12T07:24:17;22.70;99.90
27506;DHT22;14939;43.596;1.320;2023-08-12T07:26:43;22.90;99.90
27506;DHT22;14939;43.596;1.320;2023-08-12T07:29:08;23.20;99.90
27506;DHT22;14939;43.596;1.320;2023-08-12T07:31:34;23.30;99.90
27506;DHT22;14939;43.596;1.320;2023-08-12T07:34:00;23.30;99.90
27506;DHT22;14939;43.596;1.320;2023-08-12T07:36:25;23.20;99.90
27506;DHT22;14939;43.596;1.320;2023-08-12T07:38:51;23.20;99.90
27506;DHT22;14939;43.596;1.320;2023-08-12T07:41:16;23.30;99.90
27506;DHT22;14939;43.596;1.320;2023-08-12T07:43:42;23.30;99.90
27506;DHT22;14939;43.596;1.320;2023-08-12T07:46:08;23.50;99.90
27506;DHT22;14939;43.596;1.320;2023-08-12T07:48:33;23.70;99.90
27506;DHT22;14939;43.596;1.320;2023-08-12T07:50:59;23.60;99.90
27506;DHT22;14939;43.596;1.320;2023-08-12T07:53:25;23.70;99.90
27506;DHT22;14939;43.596;1.320;2023-08-12T07:55:51;23.90;99.90
27506;DHT22;14939;43.596;1.320;2023-08-12T07:58:16;23.90;99.90
27506;DHT22;14939;43.596;1.320;2023-08-12T08:00:42;23.70;99.90
27506;DHT22;14939;43.596;1.320;2023-08-12T08:03:08;23.70;99.90
27506;DHT22;14939;43.596;1.320;2023-08-12T08:05:33;23.80;99.90
27506;DHT22;14939;43.596;1.320;2023-08-12T08:07:59;23.70;99.90
27506;DHT22;14939;43.596;1.320;2023-08-12T08:10:24;23.60;99.90
27506;DHT22;14939;43.596;1.320;2023-08-12T08:12:50;23.50;99.90
27506;DHT22;14939;43.596;1.320;2023-08-12T08:15:15;23.40;99.90
27506;DHT22;14939;43.596;1.320;2023-08-12T08:17:41;23.30;99.90
27506;DHT22;14939;43.596;1.320;2023-08-12T08:20:07;23.50;99.90
27506;DHT22;14939;43.596;1.320;2023-08-12T08:22:32;23.70;99.90
27506;DHT22;14939;43.596;1.320;2023-08-12T08:24:58;23.70;99.90
27506;DHT22;14939;43.596;1.320;2023-08-12T08:27:24;23.90;99.90
27506;DHT22;14939;43.596;1.320;2023-08-12T08:29:50;23.80;99.90
27506;DHT22;14939;43.596;1.320;2023-08-12T08:32:15;23.80;99.90
27506;DHT22;14939;43.596;1.320;2023-08-12T08:34:42;23.80;99.90
27506;DHT22;14939;43.596;1.320;2023-08-12T08:37:08;23.90;99.90
27506;DHT22;14939;43.596;1.320;2023-08-12T08:39:33;24.00;99.90
27506;DHT22;14939;43.596;1.320;2023-08-12T08:41:59;24.20;99.90
27506;DHT22;14939;43.596;1.320;2023-08-12T08:44:26;24.30;99.90
27506;DHT22;14939;43.596;1.320;2023-08-12T08:46:54;24.40;99.90
27506;DHT22;14939;43.596;1.320;2023-08-12T08:49:20;24.50;99.90
27506;DHT22;14939;43.596;1.320;2023-08-12T08:51:46;24.60;99.90
27506;DHT22;14939;43.596;1.320;2023-08-12T08:54:12;24.70;99.90
27506;DHT22;14939;43.596;1.320;2023-08-12T08:56:37;24.80;99.90
27506;DHT22;14939;43.596;1.320;2023-08-12T08:59:04;24.90;99.90
27506;DHT22;14939;43.596;1.320;2023-08-12T09:01:29;25.00;99.90
27506;DHT22;14939;43.596;1.320;2023-08-12T09:03:56;25.00;99.90
27506;DHT22;14939;43.596;1.320;2023-08-12T09:06:22;25.10;99.90
27506;DHT22;14939;43.596;1.320;2023-08-12T09:08:50;25.00;99.90
27506;DHT22;14939;43.596;1.320;2023-08-12T09:11:16;25.10;99.90
27506;DHT22;14939;43.596;1.320;2023-08-12T09:13:42;25.20;99.90
27506;DHT22;14939;43.596;1.320;2023-08-12T09:16:08;25.10;99.90
27506;DHT22;14939;43.596;1.320;2023-08-12T09:18:34;25.00;99.90
27506;DHT22;14939;43.596;1.320;2023-08-12T09:21:00;25.10;99.90
27506;DHT22;14939;43.596;1.320;2023-08-12T09:23:26;25.20;99.90
27506;DHT22;14939;43.596;1.320;2023-08-12T09:25:52;25.40;99.90
27506;DHT22;14939;43.596;1.320;2023-08-12T09:28:18;25.60;99.90
27506;DHT22;14939;43.596;1.320;2023-08-12T09:30:49;25.70;99.90
27506;DHT22;14939;43.596;1.320;2023-08-12T09:33:15;25.90;99.90
27506;DHT22;14939;43.596;1.320;2023-08-12T09:35:41;25.90;99.90
27506;DHT22;14939;43.596;1.320;2023-08-12T09:38:10;26.00;99.90
27506;DHT22;14939;43.596;1.320;2023-08-12T09:40:36;26.00;99.90
27506;DHT22;14939;43.596;1.320;2023-08-12T09:43:02;26.10;99.90
27506;DHT22;14939;43.596;1.320;2023-08-12T09:45:28;26.10;99.90
27506;DHT22;14939;43.596;1.320;2023-08-12T09:47:54;26.30;99.90
27506;DHT22;14939;43.596;1.320;2023-08-12T09:50:23;26.30;99.90
27506;DHT22;14939;43.596;1.320;2023-08-12T09:52:48;26.30;99.90
27506;DHT22;14939;43.596;1.320;2023-08-12T09:55:15;26.50;99.90
27506;DHT22;14939;43.596;1.320;2023-08-12T09:57:42;26.70;99.90
27506;DHT22;14939;43.596;1.320;2023-08-12T10:00:09;26.70;99.90
27506;DHT22;14939;43.596;1.320;2023-08-12T10:02:39;26.60;99.90
27506;DHT22;14939;43.596;1.320;2023-08-12T10:05:05;26.70;99.90
27506;DHT22;14939;43.596;1.320;2023-08-12T10:07:32;26.80;99.90
27506;DHT22;14939;43.596;1.320;2023-08-12T10:09:57;26.80;99.90
27506;DHT22;14939;43.596;1.320;2023-08-12T10:12:23;26.90;99.90
27506;DHT22;14939;43.596;1.320;2023-08-12T10:14:48;26.90;99.90
27506;DHT22;14939;43.596;1.320;2023-08-12T10:17:14;27.10;99.90
27506;DHT22;14939;43.596;1.320;2023-08-12T10:19:43;26.90;99.90
27506;DHT22;14939;43.596;1.320;2023-08-12T10:22:09;27.10;99.90
27506;DHT22;14939;43.596;1.320;2023-08-12T10:24:35;27.20;99.90
27506;DHT22;14939;43.596;1.320;2023-08-12T10:27:01;27.20;99.90
27506;DHT22;14939;43.596;1.320;2023-08-12T10:29:29;27.50;99.90
27506;DHT22;14939;43.596;1.320;2023-08-12T10:31:57;27.60;99.90
27506;DHT22;14939;43.596;1.320;2023-08-12T10:34:23;27.60;99.90
27506;DHT22;14939;43.596;1.320;2023-08-12T10:36:56;27.70;99.90
27506;DHT22;14939;43.596;1.320;2023-08-12T10:39:25;27.70;99.90
27506;DHT22;14939;43.596;1.320;2023-08-12T10:41:51;27.80;99.90
27506;DHT22;14939;43.596;1.320;2023-08-12T10:44:19;27.80;99.90
27506;DHT22;14939;43.596;1.320;2023-08-12T10:46:52;28.00;99.90
27506;DHT22;14939;43.596;1.320;2023-08-12T10:49:19;28.10;99.90
27506;DHT22;14939;43.596;1.320;2023-08-12T10:51:45;28.20;99.90
27506;DHT22;14939;43.596;1.320;2023-08-12T10:59:50;28.50;99.90
27506;DHT22;14939;43.596;1.320;2023-08-12T11:02:18;28.50;99.90
27506;DHT22;14939;43.596;1.320;2023-08-12T11:04:48;28.60;99.90
27506;DHT22;14939;43.596;1.320;2023-08-12T11:07:14;28.70;99.90
27506;DHT22;14939;43.596;1.320;2023-08-12T11:09:40;28.80;99.90
27506;DHT22;14939;43.596;1.320;2023-08-12T11:12:06;28.90;99.90
27506;DHT22;14939;43.596;1.320;2023-08-12T11:14:31;29.00;99.90
27506;DHT22;14939;43.596;1.320;2023-08-12T11:16:57;29.10;99.90
27506;DHT22;14939;43.596;1.320;2023-08-12T11:19:22;29.10;99.90
27506;DHT22;14939;43.596;1.320;2023-08-12T11:21:48;29.40;99.90
27506;DHT22;14939;43.596;1.320;2023-08-12T11:24:14;29.30;99.90
27506;DHT22;14939;43.596;1.320;2023-08-12T11:26:40;29.30;99.90
27506;DHT22;14939;43.596;1.320;2023-08-12T11:29:10;29.40;99.90
27506;DHT22;14939;43.596;1.320;2023-08-12T11:31:36;29.10;99.90
27506;DHT22;14939;43.596;1.320;2023-08-12T11:34:02;29.00;99.90
27506;DHT22;14939;43.596;1.320;2023-08-12T11:36:28;29.10;99.90
27506;DHT22;14939;43.596;1.320;2023-08-12T11:38:56;29.30;99.90
27506;DHT22;14939;43.596;1.320;2023-08-12T11:41:22;29.40;99.90
27506;DHT22;14939;43.596;1.320;2023-08-12T11:43:48;29.80;99.90
27506;DHT22;14939;43.596;1.320;2023-08-12T11:46:15;29.80;99.90
27506;DHT22;14939;43.596;1.320;2023-08-12T11:48:43;29.80;99.90
27506;DHT22;14939;43.596;1.320;2023-08-12T11:51:08;29.80;99.90
27506;DHT22;14939;43.596;1.320;2023-08-12T11:53:34;29.80;99.90
27506;DHT22;14939;43.596;1.320;2023-08-12T11:55:59;29.90;99.60
27506;DHT22;14939;43.596;1.320;2023-08-12T11:58:25;30.10;98.90
27506;DHT22;14939;43.596;1.320;2023-08-12T12:00:51;30.20;98.40
27506;DHT22;14939;43.596;1.320;2023-08-12T12:03:16;30.10;98.00
27506;DHT22;14939;43.596;1.320;2023-08-12T12:05:46;30.20;97.10
27506;DHT22;14939;43.596;1.320;2023-08-12T12:08:11;30.30;96.60
27506;DHT22;14939;43.596;1.320;2023-08-12T12:10:37;30.50;95.80
27506;DHT22;14939;43.596;1.320;2023-08-12T12:13:03;30.50;94.30
27506;DHT22;14939;43.596;1.320;2023-08-12T12:15:30;30.40;94.00
27506;DHT22;14939;43.596;1.320;2023-08-12T12:17:56;30.40;93.50
27506;DHT22;14939;43.596;1.320;2023-08-12T12:20:22;30.30;93.30
27506;DHT22;14939;43.596;1.320;2023-08-12T12:22:47;30.10;93.80
27506;DHT22;14939;43.596;1.320;2023-08-12T12:25:14;30.30;93.30
27506;DHT22;14939;43.596;1.320;2023-08-12T12:27:40;30.40;92.60
27506;DHT22;14939;43.596;1.320;2023-08-12T12:30:10;30.50;91.90
27506;DHT22;14939;43.596;1.320;2023-08-12T12:32:35;30.70;92.60
27506;DHT22;14939;43.596;1.320;2023-08-12T12:35:01;30.60;92.80
27506;DHT22;14939;43.596;1.320;2023-08-12T12:37:28;30.60;92.20
27506;DHT22;14939;43.596;1.320;2023-08-12T12:39:54;30.90;92.10
27506;DHT22;14939;43.596;1.320;2023-08-12T12:42:19;31.10;91.10
27506;DHT22;14939;43.596;1.320;2023-08-12T12:44:45;31.30;90.20
27506;DHT22;14939;43.596;1.320;2023-08-12T12:47:10;31.10;88.80
27506;DHT22;14939;43.596;1.320;2023-08-12T12:49:40;31.00;86.80
27506;DHT22;14939;43.596;1.320;2023-08-12T12:52:09;31.30;85.60
27506;DHT22;14939;43.596;1.320;2023-08-12T12:54:34;31.60;85.90
27506;DHT22;14939;43.596;1.320;2023-08-12T12:57:00;31.40;83.40
27506;DHT22;14939;43.596;1.320;2023-08-12T12:59:26;31.00;84.10
27506;DHT22;14939;43.596;1.320;2023-08-12T13:01:52;31.10;83.90
27506;DHT22;14939;43.596;1.320;2023-08-12T13:04:18;31.10;83.80
27506;DHT22;14939;43.596;1.320;2023-08-12T13:06:44;31.30;82.10
27506;DHT22;14939;43.596;1.320;2023-08-12T13:09:09;31.80;81.20
27506;DHT22;14939;43.596;1.320;2023-08-12T13:11:35;32.10;77.40
27506;DHT22;14939;43.596;1.320;2023-08-12T13:14:01;31.90;76.50
27506;DHT22;14939;43.596;1.320;2023-08-12T13:16:26;31.90;74.80
27506;DHT22;14939;43.596;1.320;2023-08-12T13:18:52;32.00;74.60
27506;DHT22;14939;43.596;1.320;2023-08-12T13:21:17;31.90;73.70
27506;DHT22;14939;43.596;1.320;2023-08-12T13:23:43;31.70;74.30
27506;DHT22;14939;43.596;1.320;2023-08-12T13:26:08;31.70;72.30
27506;DHT22;14939;43.596;1.320;2023-08-12T13:28:34;31.70;72.60
27506;DHT22;14939;43.596;1.320;2023-08-12T13:31:00;31.90;72.70
27506;DHT22;14939;43.596;1.320;2023-08-12T13:33:25;32.00;70.70
27506;DHT22;14939;43.596;1.320;2023-08-12T13:35:51;32.00;70.40
27506;DHT22;14939;43.596;1.320;2023-08-12T13:38:16;32.30;70.20
27506;DHT22;14939;43.596;1.320;2023-08-12T13:40:42;32.60;67.50
27506;DHT22;14939;43.596;1.320;2023-08-12T13:43:07;32.50;66.50
27506;DHT22;14939;43.596;1.320;2023-08-12T13:45:33;32.20;65.80
27506;DHT22;14939;43.596;1.320;2023-08-12T13:47:58;32.00;66.40
27506;DHT22;14939;43.596;1.320;2023-08-12T13:50:24;32.20;67.20
27506;DHT22;14939;43.596;1.320;2023-08-12T13:52:50;32.50;66.00
27506;DHT22;14939;43.596;1.320;2023-08-12T13:55:15;32.40;65.60
27506;DHT22;14939;43.596;1.320;2023-08-12T13:57:41;32.00;65.80
27506;DHT22;14939;43.596;1.320;2023-08-12T14:00:07;31.70;65.40
27506;DHT22;14939;43.596;1.320;2023-08-12T14:02:35;31.70;65.10
27506;DHT22;14939;43.596;1.320;2023-08-12T14:05:02;32.10;65.30
27506;DHT22;14939;43.596;1.320;2023-08-12T14:07:28;32.50;63.30
27506;DHT22;14939;43.596;1.320;2023-08-12T14:09:54;32.40;62.30
27506;DHT22;14939;43.596;1.320;2023-08-12T14:12:19;32.50;61.90
27506;DHT22;14939;43.596;1.320;2023-08-12T14:14:45;32.60;62.10
27506;DHT22;14939;43.596;1.320;2023-08-12T14:17:11;33.20;61.60
27506;DHT22;14939;43.596;1.320;2023-08-12T14:19:39;33.40;58.80
27506;DHT22;14939;43.596;1.320;2023-08-12T14:22:05;33.50;58.20
27506;DHT22;14939;43.596;1.320;2023-08-12T14:24:30;33.70;58.10
27506;DHT22;14939;43.596;1.320;2023-08-12T14:26:56;33.70;58.20
27506;DHT22;14939;43.596;1.320;2023-08-12T14:29:21;33.90;56.50
27506;DHT22;14939;43.596;1.320;2023-08-12T14:31:47;33.60;56.90
27506;DHT22;14939;43.596;1.320;2023-08-12T14:34:12;33.00;57.50
27506;DHT22;14939;43.596;1.320;2023-08-12T14:36:38;32.90;58.00
27506;DHT22;14939;43.596;1.320;2023-08-12T14:39:03;32.80;58.00
27506;DHT22;14939;43.596;1.320;2023-08-12T14:41:29;33.00;57.90
27506;DHT22;14939;43.596;1.320;2023-08-12T14:43:55;33.00;56.60
27506;DHT22;14939;43.596;1.320;2023-08-12T14:46:20;33.20;56.60
27506;DHT22;14939;43.596;1.320;2023-08-12T14:48:46;33.30;55.60
27506;DHT22;14939;43.596;1.320;2023-08-12T14:51:11;33.30;56.10
27506;DHT22;14939;43.596;1.320;2023-08-12T14:53:37;33.60;54.80
27506;DHT22;14939;43.596;1.320;2023-08-12T14:56:02;33.70;55.20
27506;DHT22;14939;43.596;1.320;2023-08-12T14:58:28;33.80;54.10
27506;DHT22;14939;43.596;1.320;2023-08-12T15:00:53;33.90;54.70
27506;DHT22;14939;43.596;1.320;2023-08-12T15:03:19;34.10;54.40
27506;DHT22;14939;43.596;1.320;2023-08-12T15:05:45;34.40;53.70
27506;DHT22;14939;43.596;1.320;2023-08-12T15:08:10;35.30;52.60
27506;DHT22;14939;43.596;1.320;2023-08-12T15:10:36;36.50;51.20
27506;DHT22;14939;43.596;1.320;2023-08-12T15:13:01;37.40;48.70
27506;DHT22;14939;43.596;1.320;2023-08-12T15:15:27;36.80;46.20
27506;DHT22;14939;43.596;1.320;2023-08-12T15:17:52;36.60;47.30
27506;DHT22;14939;43.596;1.320;2023-08-12T15:20:18;36.30;46.00
27506;DHT22;14939;43.596;1.320;2023-08-12T15:22:43;35.40;47.20
27506;DHT22;14939;43.596;1.320;2023-08-12T15:25:09;34.40;49.10
27506;DHT22;14939;43.596;1.320;2023-08-12T15:27:35;33.90;50.30
27506;DHT22;14939;43.596;1.320;2023-08-12T15:30:00;34.70;50.20
27506;DHT22;14939;43.596;1.320;2023-08-12T15:32:26;35.70;46.70